Time;durP1;ratioP1;P1;durP2;ratioP2;P2;SDS_P1;SDS_P2;PMS_P1;PMS_P2;Temp;Humidity;BMP_temperature;BMP_pressure;BME280_temperature;BME280_humidity;BME280_pressure;Samples;Min_cycle;Max_cycle;Signal;HPM_P1;HPM_P2
2022/07/23 00:02:14;;;;;;;;;;;;;;;19.33;42.98;95681.19;5008721;28;20567;-67
2022/07/23 00:04:39;;;;;;;;;;;;;;;19.39;43.44;95684.84;5012176;28;19974;-67
2022/07/23 00:07:04;;;;;;;;;;;;;;;19.32;43.86;95682.25;5010053;28;19937;-67
2022/07/23 00:09:31;;;;;;;;;;;;;;;19.26;44.40;95681.28;5009355;28;20092;-67
2022/07/23 00:11:56;;;;;;;;;;;;;;;19.24;44.39;95671.78;5012545;28;19982;-67
2022/07/23 00:14:21;;;;;;;;;;;;;;;19.31;43.96;95672.53;5008040;28;19952;-67
2022/07/23 00:16:46;;;;;;;;;;;;;;;19.23;43.86;95684.44;5012419;28;20038;-67
2022/07/23 00:19:12;;;;;;;;;;;;;;;19.18;44.58;95673.53;5006974;28;19985;-67
2022/07/23 00:21:37;;;;;;;;;;;;;;;18.79;45.37;95666.63;5008228;28;19967;-68
2022/07/23 00:24:02;;;;;;;;;;;;;;;18.67;44.34;95657.69;5009309;28;19965;-67
2022/07/23 00:26:27;;;;;;;;;;;;;;;18.78;45.23;95662.28;5013622;28;19960;-67
2022/07/23 00:28:53;;;;;;;;;;;;;;;18.93;44.58;95656.47;5007774;28;20028;-68
2022/07/23 00:31:18;;;;;;;;;;;;;;;18.90;45.21;95651.53;5011953;28;19973;-68
2022/07/23 00:33:43;;;;;;;;;;;;;;;18.41;45.45;95665.03;5005930;28;20442;-69
2022/07/23 00:36:08;;;;;;;;;;;;;;;17.77;47.82;95664.28;5010095;28;20401;-68
2022/07/23 00:38:34;;;;;;;;;;;;;;;17.26;48.98;95660.81;4994818;28;19971;-68
2022/07/23 00:40:59;;;;;;;;;;;;;;;16.78;50.28;95654.94;5008779;28;20050;-67
2022/07/23 00:43:24;;;;;;;;;;;;;;;16.22;52.22;95654.59;5009505;28;19983;-67
2022/07/23 00:45:50;;;;;;;;;;;;;;;16.04;52.23;95648.03;4989612;28;20000;-68
2022/07/23 00:48:15;;;;;;;;;;;;;;;16.06;51.89;95647.84;5007610;28;20232;-67
2022/07/23 00:50:40;;;;;;;;;;;;;;;16.06;52.83;95659.41;5009514;28;19999;-68
2022/07/23 00:53:05;;;;;;;;;;;;;;;15.90;53.24;95657.19;5010674;28;19995;-68
2022/07/23 00:55:31;;;;;;;;;;;;;;;15.67;53.37;95651.25;4992158;28;20318;-67
2022/07/23 00:57:56;;;;;;;;;;;;;;;15.43;54.48;95653.53;4995735;28;20607;-67
2022/07/23 01:00:21;;;;;;;;;;;;;;;15.27;54.82;95656.66;5005526;28;20453;-68
2022/07/23 01:02:46;;;;;;;;;;;;;;;15.15;55.38;95665.31;5007123;28;20414;-67
2022/07/23 01:05:12;;;;;;;;;;;;;;;15.12;54.89;95659.53;5014945;28;20020;-67
2022/07/23 01:07:37;;;;;;;;;;;;;;;14.86;56.08;95662.00;5018409;28;19966;-67
2022/07/23 01:10:02;;;;;;;;;;;;;;;14.78;56.67;95662.16;5007280;28;20061;-67
2022/07/23 01:12:28;;;;;;;;;;;;;;;14.75;57.00;95660.72;4993654;28;20327;-67
2022/07/23 01:14:54;;;;;;;;;;;;;;;14.83;56.17;95652.50;5011997;28;20423;-67
2022/07/23 01:17:19;;;;;;;;;;;;;;;14.70;56.91;95647.09;5006095;28;20013;-67
2022/07/23 01:19:44;;;;;;;;;;;;;;;14.54;56.88;95637.56;5011037;28;19978;-66
2022/07/23 01:22:09;;;;;;;;;;;;;;;14.71;55.05;95627.31;5013155;28;20001;-67
2022/07/23 01:24:35;;;;;;;;;;;;;;;14.64;57.02;95632.66;5013654;28;19993;-67
2022/07/23 01:27:00;;;;;;;;;;;;;;;14.61;56.24;95635.75;5008116;28;20072;-67
2022/07/23 01:29:25;;;;;;;;;;;;;;;14.46;56.61;95630.56;5016193;28;20025;-67
2022/07/23 01:31:50;;;;;;;;;;;;;;;14.56;56.08;95622.97;5006408;28;19978;-67
2022/07/23 01:34:16;;;;;;;;;;;;;;;14.85;55.09;95620.97;5014975;28;20401;-67
2022/07/23 01:36:41;;;;;;;;;;;;;;;15.33;52.12;95632.50;5006186;28;19987;-67
2022/07/23 01:39:06;;;;;;;;;;;;;;;15.96;52.67;95626.81;5008218;28;20047;-67
2022/07/23 01:41:31;;;;;;;;;;;;;;;16.21;52.23;95634.13;5007000;28;20013;-68
2022/07/23 01:43:57;;;;;;;;;;;;;;;16.18;51.12;95627.31;5006777;28;20281;-67
2022/07/23 01:46:22;;;;;;;;;;;;;;;16.10;50.97;95633.78;5006969;28;20026;-67
2022/07/23 01:48:47;;;;;;;;;;;;;;;15.79;52.95;95638.03;5008503;28;20534;-67
2022/07/23 01:51:13;;;;;;;;;;;;;;;15.61;53.16;95636.00;5013714;28;20047;-67
2022/07/23 01:53:38;;;;;;;;;;;;;;;15.37;53.39;95630.25;5013932;28;20053;-67
2022/07/23 01:56:03;;;;;;;;;;;;;;;15.17;54.51;95633.75;5004655;28;20044;-67
2022/07/23 01:58:28;;;;;;;;;;;;;;;14.74;54.30;95628.78;5010078;28;20429;-67
2022/07/23 02:00:54;;;;;;;;;;;;;;;14.54;56.48;95626.84;5009741;28;20073;-67
2022/07/23 02:03:19;;;;;;;;;;;;;;;14.60;56.09;95626.06;5007596;28;20217;-67
2022/07/23 02:05:44;;;;;;;;;;;;;;;14.62;55.15;95618.63;5006148;28;19989;-67
2022/07/23 02:08:09;;;;;;;;;;;;;;;14.88;53.09;95621.56;5010029;28;20055;-67
2022/07/23 02:10:35;;;;;;;;;;;;;;;15.16;53.58;95618.69;5018259;28;19977;-67
2022/07/23 02:13:00;;;;;;;;;;;;;;;15.09;53.26;95624.06;5007931;28;20001;-67
2022/07/23 02:15:25;;;;;;;;;;;;;;;15.34;52.84;95617.25;5012236;28;19988;-67
2022/07/23 02:17:51;;;;;;;;;;;;;;;15.65;51.30;95626.50;5009288;28;20402;-67
2022/07/23 02:20:16;;;;;;;;;;;;;;;15.35;54.04;95626.94;5004358;28;20004;-67
2022/07/23 02:22:41;;;;;;;;;;;;;;;15.49;51.15;95625.88;4990098;28;20251;-67
2022/07/23 02:25:06;;;;;;;;;;;;;;;15.60;51.39;95628.97;5013579;28;19997;-67
2022/07/23 02:27:32;;;;;;;;;;;;;;;15.62;49.70;95626.91;4995202;28;19974;-67
2022/07/23 02:29:57;;;;;;;;;;;;;;;15.59;52.21;95619.28;5008021;28;19992;-67
2022/07/23 02:32:23;;;;;;;;;;;;;;;15.18;51.64;95616.63;5003083;28;20446;-67
2022/07/23 02:34:48;;;;;;;;;;;;;;;15.29;50.43;95625.06;5004513;28;20028;-67
2022/07/23 02:37:13;;;;;;;;;;;;;;;15.30;51.96;95616.00;5008726;28;20079;-67
2022/07/23 02:39:38;;;;;;;;;;;;;;;14.91;52.74;95627.38;5010405;28;19973;-67
2022/07/23 02:42:04;;;;;;;;;;;;;;;14.77;53.45;95628.38;5012190;28;20001;-67
2022/07/23 02:44:29;;;;;;;;;;;;;;;15.28;50.40;95620.75;5002871;28;20007;-67
2022/07/23 02:46:54;;;;;;;;;;;;;;;15.27;51.30;95619.94;5011774;28;19982;-67
2022/07/23 02:49:19;;;;;;;;;;;;;;;15.26;50.14;95620.13;5005931;28;20210;-68
2022/07/23 02:51:45;;;;;;;;;;;;;;;15.02;50.73;95633.94;5008299;28;19985;-67
2022/07/23 02:54:10;;;;;;;;;;;;;;;14.88;51.03;95635.81;5002741;28;20037;-67
2022/07/23 02:56:35;;;;;;;;;;;;;;;15.00;50.73;95628.00;5006641;28;20048;-67
2022/07/23 02:59:00;;;;;;;;;;;;;;;14.53;51.55;95625.22;5008814;28;20159;-68
2022/07/23 03:01:26;;;;;;;;;;;;;;;14.64;51.15;95638.00;5011914;28;19996;-67
2022/07/23 03:03:51;;;;;;;;;;;;;;;14.75;49.79;95633.94;5006221;28;20062;-68
2022/07/23 03:06:16;;;;;;;;;;;;;;;14.69;49.03;95630.19;5012334;28;20072;-68
2022/07/23 03:08:41;;;;;;;;;;;;;;;14.91;49.96;95639.94;5008461;28;20042;-67
2022/07/23 03:11:13;;;;;;;;;;;;;;;14.95;48.42;95638.47;5006826;28;19977;-67
2022/07/23 03:13:38;;;;;;;;;;;;;;;14.85;47.73;95639.72;5007608;28;20293;-67
2022/07/23 03:16:04;;;;;;;;;;;;;;;15.06;48.43;95631.69;5010144;28;19997;-67
2022/07/23 03:18:29;;;;;;;;;;;;;;;15.51;42.96;95624.84;5010408;28;19969;-68
2022/07/23 03:20:54;;;;;;;;;;;;;;;15.63;42.38;95623.19;5012240;28;20002;-69
2022/07/23 03:23:19;;;;;;;;;;;;;;;15.61;40.96;95627.94;4996601;28;19980;-68
2022/07/23 03:25:46;;;;;;;;;;;;;;;15.83;41.59;95617.78;5009045;28;20085;-69
2022/07/23 03:28:12;;;;;;;;;;;;;;;15.79;41.80;95623.75;5008768;28;19996;-69
2022/07/23 03:30:37;;;;;;;;;;;;;;;16.12;40.62;95620.94;5013855;28;20325;-69
2022/07/23 03:33:02;;;;;;;;;;;;;;;16.09;37.98;95620.56;4994902;28;20291;-69
2022/07/23 03:35:27;;;;;;;;;;;;;;;16.31;38.96;95622.97;5007192;28;20509;-69
2022/07/23 03:37:53;;;;;;;;;;;;;;;16.31;37.83;95622.97;5015973;28;20144;-67
2022/07/23 03:40:18;;;;;;;;;;;;;;;16.59;37.96;95622.59;5014976;28;19992;-67
2022/07/23 03:42:43;;;;;;;;;;;;;;;16.69;37.79;95619.44;5005801;28;20015;-67
2022/07/23 03:45:09;;;;;;;;;;;;;;;16.70;38.26;95621.09;5016779;28;19992;-69
2022/07/23 03:47:34;;;;;;;;;;;;;;;16.83;38.64;95616.66;5010737;28;20170;-68
2022/07/23 03:49:59;;;;;;;;;;;;;;;16.96;38.60;95621.94;5007322;28;20048;-68
2022/07/23 03:52:24;;;;;;;;;;;;;;;17.02;39.17;95621.06;5009433;28;20410;-69
2022/07/23 03:54:50;;;;;;;;;;;;;;;17.10;38.47;95629.91;5011611;28;19979;-68
2022/07/23 03:57:15;;;;;;;;;;;;;;;17.17;38.73;95636.09;5006255;28;19991;-69
2022/07/23 03:59:40;;;;;;;;;;;;;;;17.24;38.68;95644.91;5011667;28;19976;-68
2022/07/23 04:02:05;;;;;;;;;;;;;;;16.80;39.57;95642.13;5009058;28;20032;-69
2022/07/23 04:04:30;;;;;;;;;;;;;;;16.74;40.41;95656.41;5013814;28;20044;-67
2022/07/23 04:06:56;;;;;;;;;;;;;;;16.58;39.53;95650.50;5012916;28;20007;-69
2022/07/23 04:09:21;;;;;;;;;;;;;;;16.51;40.33;95652.41;5010681;28;20073;-69
2022/07/23 04:11:46;;;;;;;;;;;;;;;16.17;42.81;95654.41;5006199;28;20003;-69
2022/07/23 04:14:11;;;;;;;;;;;;;;;15.93;43.79;95654.91;5012300;28;20065;-69
2022/07/23 04:16:37;;;;;;;;;;;;;;;16.03;41.56;95649.09;5010170;28;20435;-69
2022/07/23 04:19:04;;;;;;;;;;;;;;;16.36;40.36;95652.69;5010367;28;20812;-69
2022/07/23 04:21:29;;;;;;;;;;;;;;;16.44;40.51;95648.94;5008308;28;19996;-69
2022/07/23 04:23:54;;;;;;;;;;;;;;;16.70;40.11;95653.34;5009601;28;20332;-69
2022/07/23 04:26:21;;;;;;;;;;;;;;;16.74;39.57;95659.94;5009340;28;20018;-69
2022/07/23 04:28:46;;;;;;;;;;;;;;;16.77;40.16;95662.16;5009963;28;20240;-69
2022/07/23 04:31:11;;;;;;;;;;;;;;;16.68;40.84;95663.47;5007613;28;20002;-69
2022/07/23 04:33:36;;;;;;;;;;;;;;;16.66;40.35;95667.44;5009839;28;20010;-69
2022/07/23 04:36:02;;;;;;;;;;;;;;;16.73;40.23;95669.03;5006820;28;19993;-69
2022/07/23 04:38:27;;;;;;;;;;;;;;;16.77;40.34;95662.16;5013097;28;20020;-69
2022/07/23 04:40:52;;;;;;;;;;;;;;;16.96;40.52;95666.84;5006623;28;20025;-69
2022/07/23 04:43:18;;;;;;;;;;;;;;;17.08;40.24;95670.47;5007863;28;19984;-69
2022/07/23 04:45:43;;;;;;;;;;;;;;;17.20;40.15;95665.22;5014879;28;20053;-69
2022/07/23 04:48:08;;;;;;;;;;;;;;;17.21;40.26;95663.34;5011036;28;20398;-69
2022/07/23 04:50:34;;;;;;;;;;;;;;;17.37;40.40;95672.75;5011144;28;20008;-69
2022/07/23 04:52:59;;;;;;;;;;;;;;;17.51;39.73;95681.53;5006907;28;20440;-69
2022/07/23 04:55:24;;;;;;;;;;;;;;;17.52;39.88;95681.31;5007572;28;19977;-69
2022/07/23 04:57:49;;;;;;;;;;;;;;;17.63;39.61;95676.22;5008636;28;19985;-69
2022/07/23 05:00:15;;;;;;;;;;;;;;;17.75;39.63;95668.25;5014614;28;20394;-69
2022/07/23 05:02:40;;;;;;;;;;;;;;;17.73;39.53;95671.16;5008922;28;19977;-69
2022/07/23 05:05:05;;;;;;;;;;;;;;;17.22;40.22;95676.59;5004142;28;20000;-69
2022/07/23 05:07:31;;;;;;;;;;;;;;;17.15;40.81;95673.13;4993633;28;19975;-69
2022/07/23 05:09:56;;;;;;;;;;;;;;;17.35;40.95;95681.03;5007072;28;20465;-69
2022/07/23 05:12:21;;;;;;;;;;;;;;;16.70;42.05;95674.00;5008809;28;20437;-69
2022/07/23 05:14:46;;;;;;;;;;;;;;;17.00;41.71;95670.72;5012704;28;19966;-69
2022/07/23 05:17:12;;;;;;;;;;;;;;;17.24;41.15;95673.69;5003433;28;22306;-69
2022/07/23 05:19:37;;;;;;;;;;;;;;;17.25;40.68;95670.78;5007848;28;20066;-70
2022/07/23 05:22:02;;;;;;;;;;;;;;;17.08;40.87;95666.94;5001386;28;19987;-69
2022/07/23 05:24:27;;;;;;;;;;;;;;;17.22;41.04;95671.22;5000540;28;20511;-69
2022/07/23 05:26:53;;;;;;;;;;;;;;;17.35;40.25;95672.13;5002803;28;20022;-69
2022/07/23 05:29:18;;;;;;;;;;;;;;;17.54;40.07;95679.22;5006214;28;19996;-69
2022/07/23 05:31:43;;;;;;;;;;;;;;;17.75;39.81;95679.81;5001495;28;19964;-69
2022/07/23 05:34:09;;;;;;;;;;;;;;;17.96;39.01;95677.78;4984100;28;19992;-69
2022/07/23 05:36:34;;;;;;;;;;;;;;;17.87;39.28;95673.75;5001585;28;19988;-70
2022/07/23 05:38:59;;;;;;;;;;;;;;;18.07;38.94;95680.78;5001203;28;19971;-69
2022/07/23 05:41:24;;;;;;;;;;;;;;;17.78;38.76;95679.38;5000768;28;20001;-69
2022/07/23 05:43:50;;;;;;;;;;;;;;;17.73;39.22;95686.47;5002219;28;20478;-69
2022/07/23 05:46:15;;;;;;;;;;;;;;;18.01;38.58;95687.88;5001231;28;20041;-69
2022/07/23 05:48:41;;;;;;;;;;;;;;;17.71;40.20;95697.47;5003093;28;20200;-69
2022/07/23 05:51:07;;;;;;;;;;;;;;;17.28;40.17;95685.66;5002460;28;19978;-69
2022/07/23 05:53:32;;;;;;;;;;;;;;;17.50;40.05;95690.63;4985961;28;19990;-69
2022/07/23 05:55:58;;;;;;;;;;;;;;;17.69;40.23;95688.81;5007640;28;20457;-69
2022/07/23 05:58:23;;;;;;;;;;;;;;;17.59;40.33;95693.88;5005654;28;19976;-69
2022/07/23 06:00:49;;;;;;;;;;;;;;;17.92;38.79;95693.56;5007058;28;20331;-70
2022/07/23 06:03:14;;;;;;;;;;;;;;;17.58;40.15;95686.84;5007915;28;19974;-70
2022/07/23 06:05:39;;;;;;;;;;;;;;;17.52;39.88;95697.47;4999458;28;20057;-67
2022/07/23 06:08:04;;;;;;;;;;;;;;;17.74;40.01;95696.22;5000868;28;19994;-68
2022/07/23 06:10:30;;;;;;;;;;;;;;;17.71;39.91;95699.34;5015101;28;20004;-67
2022/07/23 06:12:55;;;;;;;;;;;;;;;17.58;39.59;95697.59;5015001;28;20030;-68
2022/07/23 06:15:20;;;;;;;;;;;;;;;17.50;40.11;95696.84;5003398;28;20543;-67
2022/07/23 06:17:45;;;;;;;;;;;;;;;17.21;40.75;95701.84;5008384;28;20020;-67
2022/07/23 06:20:11;;;;;;;;;;;;;;;16.84;41.51;95702.47;5006553;28;20043;-67
2022/07/23 06:22:36;;;;;;;;;;;;;;;16.92;41.89;95709.44;5010185;28;20283;-68
2022/07/23 06:25:02;;;;;;;;;;;;;;;16.00;43.05;95714.78;5012670;28;19943;-70
2022/07/23 06:27:27;;;;;;;;;;;;;;;15.82;43.88;95717.28;5005795;28;20388;-66
2022/07/23 06:29:52;;;;;;;;;;;;;;;17.05;42.00;95721.16;5010607;28;20391;-71
2022/07/23 06:32:18;;;;;;;;;;;;;;;17.20;41.77;95716.31;5002878;28;19972;-70
2022/07/23 06:34:43;;;;;;;;;;;;;;;16.99;42.49;95718.31;5003707;28;20294;-70
2022/07/23 06:37:08;;;;;;;;;;;;;;;17.24;41.68;95727.47;5005999;28;20368;-64
2022/07/23 06:39:33;;;;;;;;;;;;;;;17.08;42.79;95734.16;5013676;28;20225;-70
2022/07/23 06:42:00;;;;;;;;;;;;;;;17.18;43.38;95731.03;5012027;28;19936;-68
2022/07/23 06:44:27;;;;;;;;;;;;;;;16.87;44.43;95728.91;5002744;28;20478;-70
2022/07/23 06:46:53;;;;;;;;;;;;;;;16.35;45.42;95734.34;4986617;28;19944;-68
2022/07/23 06:49:18;;;;;;;;;;;;;;;16.41;45.68;95741.53;5003388;28;19925;-69
2022/07/23 06:51:43;;;;;;;;;;;;;;;16.75;45.21;95742.22;5005091;28;19979;-68
2022/07/23 06:54:08;;;;;;;;;;;;;;;16.64;44.68;95743.72;5018005;28;19913;-70
2022/07/23 06:56:34;;;;;;;;;;;;;;;16.21;45.66;95741.56;5012613;28;20008;-67
2022/07/23 06:58:59;;;;;;;;;;;;;;;16.11;45.67;95742.00;5012990;28;19917;-69
2022/07/23 07:01:24;;;;;;;;;;;;;;;16.04;45.15;95749.28;5003262;28;20004;-70
2022/07/23 07:03:51;;;;;;;;;;;;;;;16.54;44.17;95753.25;5003342;28;20019;-69
2022/07/23 07:06:16;;;;;;;;;;;;;;;16.95;43.40;95754.72;5013519;28;20059;-70
2022/07/23 07:08:43;;;;;;;;;;;;;;;17.22;42.66;95754.59;5007864;28;19928;-71
2022/07/23 07:11:08;;;;;;;;;;;;;;;17.57;41.65;95758.69;5003057;28;19917;-70
2022/07/23 07:13:33;;;;;;;;;;;;;;;16.97;42.99;95759.91;5012961;28;19918;-71
2022/07/23 07:15:59;;;;;;;;;;;;;;;17.03;42.69;95759.84;5004306;28;19956;-69
2022/07/23 07:18:24;;;;;;;;;;;;;;;17.25;42.78;95767.63;5002769;28;19913;-68
2022/07/23 07:20:49;;;;;;;;;;;;;;;17.57;41.66;95764.06;5002354;28;19925;-69
2022/07/23 07:23:14;;;;;;;;;;;;;;;17.63;41.73;95765.88;5006555;28;20107;-70
2022/07/23 07:25:40;;;;;;;;;;;;;;;17.60;42.99;95778.94;5002715;28;20374;-67
2022/07/23 07:28:05;;;;;;;;;;;;;;;17.51;42.92;95776.53;5007022;28;19926;-66
2022/07/23 07:30:30;;;;;;;;;;;;;;;17.31;43.07;95773.16;5009954;28;19928;-67
2022/07/23 07:32:55;;;;;;;;;;;;;;;17.63;42.52;95773.13;5004448;28;19925;-70
2022/07/23 07:35:20;;;;;;;;;;;;;;;17.72;42.42;95779.91;5003648;28;20330;-69
2022/07/23 07:37:46;;;;;;;;;;;;;;;18.17;42.30;95780.75;5012866;28;19922;-68
2022/07/23 07:40:11;;;;;;;;;;;;;;;18.90;40.33;95785.56;5003611;28;19935;-67
2022/07/23 07:42:49;;;;;;;;;;;;;;;18.23;41.24;95787.13;5005876;28;19926;-70
2022/07/23 07:45:15;;;;;;;;;;;;;;;18.42;41.56;95779.88;5006517;28;19921;-69
2022/07/23 07:47:40;;;;;;;;;;;;;;;18.62;41.41;95786.94;5010108;28;19924;-70
2022/07/23 07:50:07;;;;;;;;;;;;;;;18.17;41.59;95780.75;5008619;28;20118;-70
2022/07/23 07:52:33;;;;;;;;;;;;;;;18.09;42.17;95789.13;5010614;28;19925;-69
2022/07/23 07:54:58;;;;;;;;;;;;;;;18.67;40.98;95790.59;5009823;28;19940;-67
2022/07/23 07:57:23;;;;;;;;;;;;;;;18.72;40.31;95795.31;5019814;28;20365;-69
2022/07/23 07:59:48;;;;;;;;;;;;;;;19.01;39.71;95801.00;5010401;28;20679;-71
2022/07/23 08:02:13;;;;;;;;;;;;;;;18.50;40.49;95801.16;5005968;28;19994;-71
2022/07/23 08:04:39;;;;;;;;;;;;;;;18.75;40.44;95805.66;5005731;28;20185;-70
2022/07/23 08:07:04;;;;;;;;;;;;;;;19.51;39.20;95798.25;5006107;28;20203;-68
2022/07/23 08:09:29;;;;;;;;;;;;;;;19.63;38.41;95799.09;5010094;28;20042;-70
2022/07/23 08:11:54;;;;;;;;;;;;;;;19.69;37.94;95814.34;5006130;28;20363;-71
2022/07/23 08:14:20;;;;;;;;;;;;;;;19.46;39.87;95815.13;5008294;28;19981;-70
2022/07/23 08:16:45;;;;;;;;;;;;;;;19.31;38.35;95819.06;5014868;28;19983;-70
2022/07/23 08:19:10;;;;;;;;;;;;;;;19.92;38.09;95820.03;5008931;28;19967;-69
2022/07/23 08:21:35;;;;;;;;;;;;;;;19.66;38.56;95822.94;5008437;28;20091;-70
2022/07/23 08:24:01;;;;;;;;;;;;;;;19.69;37.14;95819.75;5011499;28;20258;-70
2022/07/23 08:26:26;;;;;;;;;;;;;;;19.17;37.93;95820.28;4990183;28;19979;-70
2022/07/23 08:28:51;;;;;;;;;;;;;;;19.08;38.28;95815.19;5008927;28;19984;-69
2022/07/23 08:31:17;;;;;;;;;;;;;;;20.55;36.54;95820.41;5012229;28;19970;-72
2022/07/23 08:33:42;;;;;;;;;;;;;;;20.09;36.04;95828.31;5009067;28;20466;-72
2022/07/23 08:36:08;;;;;;;;;;;;;;;20.10;36.26;95824.53;5009911;28;20173;-68
2022/07/23 08:38:33;;;;;;;;;;;;;;;20.09;35.96;95823.72;5009898;28;20038;-69
2022/07/23 08:40:58;;;;;;;;;;;;;;;20.20;36.12;95822.06;5006855;28;19993;-72
2022/07/23 08:43:24;;;;;;;;;;;;;;;20.40;36.26;95823.59;5005887;28;20246;-70
2022/07/23 08:45:50;;;;;;;;;;;;;;;20.46;34.43;95828.03;4987161;28;20081;-70
2022/07/23 08:48:16;;;;;;;;;;;;;;;20.53;34.68;95838.72;5005227;28;20453;-71
2022/07/23 08:50:45;;;;;;;;;;;;;;;20.54;35.67;95831.44;5010971;28;19963;-71
2022/07/23 08:53:10;;;;;;;;;;;;;;;19.65;36.71;95832.06;5010041;28;20046;-71
2022/07/23 08:55:36;;;;;;;;;;;;;;;20.63;35.79;95831.94;5006904;28;19969;-68
2022/07/23 08:58:01;;;;;;;;;;;;;;;21.19;35.44;95826.84;4991013;28;19981;-70
2022/07/23 09:00:27;;;;;;;;;;;;;;;21.45;33.95;95827.34;5013704;28;19977;-71
2022/07/23 09:02:52;;;;;;;;;;;;;;;21.18;33.84;95827.91;5008683;28;19978;-70
2022/07/23 09:05:17;;;;;;;;;;;;;;;20.99;33.83;95840.78;5006887;28;19986;-70
2022/07/23 09:08:01;;;;;;;;;;;;;;;20.55;34.17;95836.63;5009140;28;20399;-72
2022/07/23 09:10:26;;;;;;;;;;;;;;;19.94;34.40;95836.81;5006883;28;19993;-72
2022/07/23 09:12:52;;;;;;;;;;;;;;;20.69;33.42;95842.63;5009700;28;20195;-71
2022/07/23 09:15:17;;;;;;;;;;;;;;;21.16;33.41;95834.63;5014173;28;19962;-70
2022/07/23 09:17:42;;;;;;;;;;;;;;;21.09;32.81;95830.19;5010108;28;19997;-72
2022/07/23 09:20:14;;;;;;;;;;;;;;;21.13;31.80;95831.34;5007292;28;20486;-70
2022/07/23 09:22:49;;;;;;;;;;;;;;;21.44;32.83;95838.41;5009297;28;20005;-70
2022/07/23 09:25:15;;;;;;;;;;;;;;;21.83;31.51;95837.75;5009434;28;19991;-71
2022/07/23 09:27:53;;;;;;;;;;;;;;;21.98;31.16;95837.19;5009841;28;19963;-69
2022/07/23 09:30:22;;;;;;;;;;;;;;;22.06;28.32;95847.63;5010844;28;19976;-70
2022/07/23 09:33:04;;;;;;;;;;;;;;;21.44;30.36;95843.81;4990341;28;20418;-71
2022/07/23 09:35:49;;;;;;;;;;;;;;;21.51;29.94;95842.63;5010979;28;19971;-70
2022/07/23 09:38:14;;;;;;;;;;;;;;;21.18;31.02;95840.63;5008109;28;19991;-70
2022/07/23 09:40:40;;;;;;;;;;;;;;;21.54;31.61;95841.31;5018642;28;19989;-70
2022/07/23 09:43:05;;;;;;;;;;;;;;;21.89;28.39;95845.69;5005826;28;20037;-68
2022/07/23 09:45:30;;;;;;;;;;;;;;;21.43;29.59;95842.19;4987914;28;19988;-69
2022/07/23 09:48:15;;;;;;;;;;;;;;;21.66;30.62;95851.25;5005427;28;20463;-71
2022/07/23 09:50:41;;;;;;;;;;;;;;;21.66;29.69;95848.56;4989264;28;20003;-71
2022/07/23 09:53:06;;;;;;;;;;;;;;;21.54;28.67;95845.91;5005726;28;20018;-71
2022/07/23 09:55:38;;;;;;;;;;;;;;;21.84;29.57;95842.91;5011086;28;19962;-68
2022/07/23 09:58:13;;;;;;;;;;;;;;;22.08;28.08;95842.78;5009781;28;20407;-70
2022/07/23 10:00:38;;;;;;;;;;;;;;;22.63;28.53;95850.38;5007611;28;19978;-69
2022/07/23 10:03:03;;;;;;;;;;;;;;;22.98;26.95;95845.66;5007828;28;19978;-68
2022/07/23 10:05:29;;;;;;;;;;;;;;;23.00;26.01;95854.38;5017818;28;19988;-72
2022/07/23 10:07:54;;;;;;;;;;;;;;;22.09;29.06;95857.97;5006612;28;20382;-71
2022/07/23 10:10:19;;;;;;;;;;;;;;;22.35;29.33;95857.53;4992761;28;19963;-72
2022/07/23 10:15:13;;;;;;;;;;;;;;;22.16;27.90;95860.50;5012470;28;19953;-70
2022/07/23 10:17:38;;;;;;;;;;;;;;;21.94;29.91;95860.44;5008464;28;20398;-69
2022/07/23 10:20:03;;;;;;;;;;;;;;;22.65;30.61;95857.22;5006819;28;20471;-71
2022/07/23 10:22:32;;;;;;;;;;;;;;;23.08;26.96;95850.41;5012049;28;20050;-72
2022/07/23 10:25:07;;;;;;;;;;;;;;;23.79;26.97;95846.00;5010649;28;19969;-71
2022/07/23 10:27:50;;;;;;;;;;;;;;;24.24;25.13;95851.28;5006731;28;20041;-70
2022/07/23 10:30:26;;;;;;;;;;;;;;;24.28;26.26;95850.50;4989348;28;19973;-73
2022/07/23 10:32:57;;;;;;;;;;;;;;;23.16;27.76;95853.53;4993193;28;19984;-71
2022/07/23 10:35:28;;;;;;;;;;;;;;;22.46;28.32;95844.94;5007924;28;19972;-73
2022/07/23 10:37:57;;;;;;;;;;;;;;;22.95;26.80;95846.16;5011783;28;19978;-71
2022/07/23 10:40:23;;;;;;;;;;;;;;;22.37;28.93;95841.84;4990748;28;20004;-73
2022/07/23 10:42:55;;;;;;;;;;;;;;;22.59;27.98;95836.50;5011809;28;20408;-71
2022/07/23 10:45:24;;;;;;;;;;;;;;;22.69;28.78;95834.97;5007945;28;19985;-71
2022/07/23 10:47:50;;;;;;;;;;;;;;;22.90;27.67;95838.78;5010582;28;20021;-72
2022/07/23 10:50:16;;;;;;;;;;;;;;;23.45;26.37;95838.06;4990520;28;20245;-72
2022/07/23 10:52:41;;;;;;;;;;;;;;;23.30;28.24;95828.69;4998504;28;20373;-73
2022/07/23 10:55:10;;;;;;;;;;;;;;;22.34;28.99;95818.78;4988984;28;20046;-71
2022/07/23 10:57:46;;;;;;;;;;;;;;;22.53;28.71;95830.19;5010784;28;20069;-71
2022/07/23 11:00:13;;;;;;;;;;;;;;;22.87;28.05;95834.69;4999872;28;20187;-72
2022/07/23 11:02:38;;;;;;;;;;;;;;;22.76;28.30;95836.44;5006862;28;19976;-70
2022/07/23 11:05:05;;;;;;;;;;;;;;;23.14;28.04;95839.38;5009125;28;20069;-73
2022/07/23 11:07:30;;;;;;;;;;;;;;;23.24;26.95;95827.81;5006926;28;20329;-70
2022/07/23 11:09:55;;;;;;;;;;;;;;;22.48;28.70;95840.09;5018926;28;20084;-70
2022/07/23 11:12:20;;;;;;;;;;;;;;;22.88;29.34;95830.88;4986224;28;19976;-73
2022/07/23 11:15:04;;;;;;;;;;;;;;;23.08;27.79;95839.53;5009138;28;19948;-70
2022/07/23 11:17:30;;;;;;;;;;;;;;;23.93;26.01;95830.91;5009373;28;20086;-74
2022/07/23 11:20:07;;;;;;;;;;;;;;;24.06;25.79;95850.59;5007913;28;20019;-73
2022/07/23 11:22:36;;;;;;;;;;;;;;;24.38;24.54;95828.00;5008968;28;20532;-73
2022/07/23 11:25:01;;;;;;;;;;;;;;;23.50;26.78;95828.06;5009089;28;20014;-73
2022/07/23 11:27:39;;;;;;;;;;;;;;;23.00;27.48;95838.91;5009626;28;19992;-73
2022/07/23 11:30:05;;;;;;;;;;;;;;;22.85;25.99;95831.41;5009428;28;20344;-73
2022/07/23 11:32:32;;;;;;;;;;;;;;;22.73;26.86;95830.69;4992835;28;19979;-71
2022/07/23 11:34:57;;;;;;;;;;;;;;;22.83;26.23;95843.56;5009963;28;20015;-72
2022/07/23 11:37:41;;;;;;;;;;;;;;;21.92;27.22;95838.19;4992775;28;20278;-72
2022/07/23 11:40:08;;;;;;;;;;;;;;;22.83;25.70;95838.97;5018051;28;20063;-73
2022/07/23 11:42:33;;;;;;;;;;;;;;;22.91;27.46;95835.81;5008949;28;20089;-71
2022/07/23 11:44:59;;;;;;;;;;;;;;;23.64;27.15;95831.19;5008362;28;20483;-73
2022/07/23 11:47:24;;;;;;;;;;;;;;;23.91;25.66;95835.81;5001891;28;19971;-70
2022/07/23 11:50:00;;;;;;;;;;;;;;;23.99;25.55;95833.69;4990804;28;19980;-69
2022/07/23 11:52:25;;;;;;;;;;;;;;;24.80;24.02;95831.75;5018266;28;20041;-71
2022/07/23 11:54:51;;;;;;;;;;;;;;;24.22;25.05;95828.94;5014328;28;20444;-73
2022/07/23 11:57:16;;;;;;;;;;;;;;;24.30;25.63;95842.06;5014710;28;19982;-73
2022/07/23 11:59:42;;;;;;;;;;;;;;;24.71;24.39;95834.16;5019367;28;19962;-72
2022/07/23 12:02:07;;;;;;;;;;;;;;;24.68;24.10;95831.97;5009043;28;20052;-71
2022/07/23 12:04:39;;;;;;;;;;;;;;;24.08;24.98;95829.41;4997877;28;20032;-71
2022/07/23 12:07:04;;;;;;;;;;;;;;;23.72;25.66;95837.25;5009673;28;20441;-72
2022/07/23 12:09:29;;;;;;;;;;;;;;;23.66;25.81;95833.66;4991875;28;19977;-74
2022/07/23 12:11:58;;;;;;;;;;;;;;;24.00;25.16;95827.16;5010932;28;19960;-71
2022/07/23 12:14:23;;;;;;;;;;;;;;;24.06;25.63;95837.00;5011704;28;20458;-71
2022/07/23 12:17:06;;;;;;;;;;;;;;;23.47;26.23;95827.75;4993683;28;20194;-73
2022/07/23 12:19:31;;;;;;;;;;;;;;;24.32;24.91;95829.88;5012456;28;19962;-71
2022/07/23 12:21:56;;;;;;;;;;;;;;;24.97;22.89;95830.78;4993158;28;19975;-72
2022/07/23 12:24:21;;;;;;;;;;;;;;;25.77;22.42;95825.25;4992379;28;20062;-72
2022/07/23 12:27:05;;;;;;;;;;;;;;;25.55;24.35;95831.75;5007390;28;20021;-72
2022/07/23 12:29:34;;;;;;;;;;;;;;;25.60;22.52;95831.78;5013170;28;19962;-74
2022/07/23 12:31:59;;;;;;;;;;;;;;;25.86;22.87;95834.53;5015795;28;19969;-73
2022/07/23 12:34:25;;;;;;;;;;;;;;;25.05;23.34;95832.19;5008970;28;19954;-71
2022/07/23 12:36:51;;;;;;;;;;;;;;;26.21;21.70;95830.16;4996559;28;19967;-72
2022/07/23 12:39:29;;;;;;;;;;;;;;;25.67;23.28;95831.53;5018794;28;20022;-71
2022/07/23 12:41:54;;;;;;;;;;;;;;;26.01;22.33;95832.88;5017165;28;20356;-71
2022/07/23 12:44:20;;;;;;;;;;;;;;;25.92;22.55;95832.59;5013587;28;19972;-71
2022/07/23 12:46:49;;;;;;;;;;;;;;;26.17;21.90;95828.28;5005276;28;20525;-72